sensor_id;sensor_type;location;lat;lon;timestamp;pressure;altitude;pressure_sealevel;temperature;humidity
68525;BME280;55524;51.380;13.372;2023-03-20T00:01:24;100590.88;;;9.06;100.00
68525;BME280;55524;51.380;13.372;2023-03-20T00:03:51;100593.34;;;9.13;100.00
68525;BME280;55524;51.380;13.372;2023-03-20T00:06:26;100588.78;;;9.18;100.00
68525;BME280;55524;51.380;13.372;2023-03-20T00:08:54;100593.22;;;9.17;100.00
68525;BME280;55524;51.380;13.372;2023-03-20T00:11:49;100595.84;;;9.17;100.00
68525;BME280;55524;51.380;13.372;2023-03-20T00:14:18;100594.03;;;9.19;100.00
68525;BME280;55524;51.380;13.372;2023-03-20T00:16:47;100589.66;;;9.18;100.00
68525;BME280;55524;51.380;13.372;2023-03-20T00:19:16;100597.56;;;9.18;100.00
68525;BME280;55524;51.380;13.372;2023-03-20T00:21:46;100588.00;;;9.16;100.00
68525;BME280;55524;51.380;13.372;2023-03-20T00:24:13;100592.41;;;9.15;100.00
68525;BME280;55524;51.380;13.372;2023-03-20T00:26:40;100589.88;;;9.10;100.00
68525;BME280;55524;51.380;13.372;2023-03-20T00:29:14;100599.63;;;9.08;100.00
68525;BME280;55524;51.380;13.372;2023-03-20T00:31:42;100597.94;;;9.06;100.00
68525;BME280;55524;51.380;13.372;2023-03-20T00:34:15;100590.06;;;9.04;100.00
68525;BME280;55524;51.380;13.372;2023-03-20T00:36:42;100595.41;;;9.03;100.00
68525;BME280;55524;51.380;13.372;2023-03-20T00:39:09;100596.28;;;9.02;100.00
68525;BME280;55524;51.380;13.372;2023-03-20T00:41:42;100594.50;;;9.04;100.00
68525;BME280;55524;51.380;13.372;2023-03-20T00:44:32;100594.50;;;9.04;100.00
68525;BME280;55524;51.380;13.372;2023-03-20T00:47:02;100585.81;;;9.00;100.00
68525;BME280;55524;51.380;13.372;2023-03-20T00:49:31;100593.78;;;8.97;100.00
68525;BME280;55524;51.380;13.372;2023-03-20T00:52:00;100592.97;;;8.95;100.00
68525;BME280;55524;51.380;13.372;2023-03-20T00:54:27;100596.56;;;8.93;100.00
68525;BME280;55524;51.380;13.372;2023-03-20T00:59:26;100583.31;;;8.94;100.00
68525;BME280;55524;51.380;13.372;2023-03-20T01:01:54;100585.06;;;8.95;100.00
68525;BME280;55524;51.380;13.372;2023-03-20T01:04:21;100593.88;;;8.94;100.00
68525;BME280;55524;51.380;13.372;2023-03-20T01:06:48;100591.28;;;8.93;100.00
68525;BME280;55524;51.380;13.372;2023-03-20T01:09:14;100591.22;;;8.94;100.00
68525;BME280;55524;51.380;13.372;2023-03-20T01:11:41;100585.22;;;8.89;100.00
68525;BME280;55524;51.380;13.372;2023-03-20T01:14:14;100583.59;;;8.85;100.00
68525;BME280;55524;51.380;13.372;2023-03-20T01:16:41;100595.97;;;8.83;100.00
68525;BME280;55524;51.380;13.372;2023-03-20T01:19:13;100590.72;;;8.81;100.00
68525;BME280;55524;51.380;13.372;2023-03-20T01:21:41;100588.09;;;8.81;100.00
68525;BME280;55524;51.380;13.372;2023-03-20T01:24:07;100591.63;;;8.80;100.00
68525;BME280;55524;51.380;13.372;2023-03-20T01:26:39;100592.56;;;8.78;100.00
68525;BME280;55524;51.380;13.372;2023-03-20T01:31:44;100594.41;;;8.76;100.00
68525;BME280;55524;51.380;13.372;2023-03-20T01:34:11;100593.53;;;8.75;100.00
68525;BME280;55524;51.380;13.372;2023-03-20T01:36:38;100587.38;;;8.75;100.00
68525;BME280;55524;51.380;13.372;2023-03-20T01:39:05;100586.56;;;8.73;100.00
68525;BME280;55524;51.380;13.372;2023-03-20T01:41:31;100591.91;;;8.71;100.00
68525;BME280;55524;51.380;13.372;2023-03-20T01:44:08;100586.63;;;8.71;100.00
68525;BME280;55524;51.380;13.372;2023-03-20T01:46:42;100590.34;;;8.62;100.00
68525;BME280;55524;51.380;13.372;2023-03-20T01:51:56;100600.22;;;8.54;100.00
68525;BME280;55524;51.380;13.372;2023-03-20T01:54:26;100596.84;;;8.49;100.00
68525;BME280;55524;51.380;13.372;2023-03-20T01:57:10;100596.03;;;8.47;100.00
68525;BME280;55524;51.380;13.372;2023-03-20T01:59:44;100587.25;;;8.47;100.00
68525;BME280;55524;51.380;13.372;2023-03-20T02:02:16;100592.38;;;8.53;100.00
68525;BME280;55524;51.380;13.372;2023-03-20T02:04:47;100595.66;;;8.61;100.00
68525;BME280;55524;51.380;13.372;2023-03-20T02:07:17;100590.25;;;8.67;100.00
68525;BME280;55524;51.380;13.372;2023-03-20T02:09:46;100598.03;;;8.72;100.00
68525;BME280;55524;51.380;13.372;2023-03-20T02:12:14;100595.19;;;8.79;100.00
68525;BME280;55524;51.380;13.372;2023-03-20T02:14:40;100596.00;;;8.81;100.00
68525;BME280;55524;51.380;13.372;2023-03-20T02:17:09;100590.84;;;8.77;100.00
68525;BME280;55524;51.380;13.372;2023-03-20T02:22:47;100595.25;;;8.76;100.00
68525;BME280;55524;51.380;13.372;2023-03-20T02:35:05;100593.00;;;8.94;100.00
68525;BME280;55524;51.380;13.372;2023-03-20T02:43:45;100592.34;;;8.87;100.00
68525;BME280;55524;51.380;13.372;2023-03-20T02:48:56;100587.22;;;8.81;100.00
68525;BME280;55524;51.380;13.372;2023-03-20T02:51:32;100581.09;;;8.80;100.00
68525;BME280;55524;51.380;13.372;2023-03-20T02:54:25;100588.22;;;8.77;100.00
68525;BME280;55524;51.380;13.372;2023-03-20T02:57:10;100590.97;;;8.72;100.00
68525;BME280;55524;51.380;13.372;2023-03-20T02:59:59;100589.22;;;8.73;100.00
68525;BME280;55524;51.380;13.372;2023-03-20T03:05:03;100587.81;;;8.59;100.00
68525;BME280;55524;51.380;13.372;2023-03-20T03:07:32;100589.63;;;8.57;100.00
68525;BME280;55524;51.380;13.372;2023-03-20T03:10:11;100584.47;;;8.53;100.00
68525;BME280;55524;51.380;13.372;2023-03-20T03:12:43;100591.53;;;8.52;100.00
68525;BME280;55524;51.380;13.372;2023-03-20T03:15:27;100588.03;;;8.50;100.00
68525;BME280;55524;51.380;13.372;2023-03-20T03:17:58;100587.19;;;8.50;100.00
68525;BME280;55524;51.380;13.372;2023-03-20T03:20:33;100598.78;;;8.43;100.00
68525;BME280;55524;51.380;13.372;2023-03-20T03:23:02;100592.78;;;8.37;100.00
68525;BME280;55524;51.380;13.372;2023-03-20T03:25:35;100595.44;;;8.36;100.00
68525;BME280;55524;51.380;13.372;2023-03-20T03:28:20;100595.56;;;8.30;100.00
68525;BME280;55524;51.380;13.372;2023-03-20T03:30:49;100592.88;;;8.31;100.00
68525;BME280;55524;51.380;13.372;2023-03-20T03:33:22;100590.16;;;8.36;100.00
68525;BME280;55524;51.380;13.372;2023-03-20T03:35:52;100588.13;;;8.47;100.00
68525;BME280;55524;51.380;13.372;2023-03-20T03:41:21;100587.50;;;8.37;100.00
68525;BME280;55524;51.380;13.372;2023-03-20T03:49:22;100583.78;;;8.10;100.00
68525;BME280;55524;51.380;13.372;2023-03-20T03:51:53;100592.75;;;8.02;100.00
68525;BME280;55524;51.380;13.372;2023-03-20T03:54:28;100585.22;;;7.88;100.00
68525;BME280;55524;51.380;13.372;2023-03-20T03:56:57;100587.06;;;7.84;100.00
68525;BME280;55524;51.380;13.372;2023-03-20T03:59:34;100588.84;;;7.82;100.00
68525;BME280;55524;51.380;13.372;2023-03-20T04:02:02;100593.31;;;7.79;100.00
68525;BME280;55524;51.380;13.372;2023-03-20T04:04:32;100591.53;;;7.79;100.00
68525;BME280;55524;51.380;13.372;2023-03-20T04:06:59;100596.81;;;7.79;100.00
68525;BME280;55524;51.380;13.372;2023-03-20T04:09:25;100581.88;;;7.80;100.00
68525;BME280;55524;51.380;13.372;2023-03-20T04:11:52;100591.66;;;7.75;100.00
68525;BME280;55524;51.380;13.372;2023-03-20T04:14:19;100588.22;;;7.73;100.00
68525;BME280;55524;51.380;13.372;2023-03-20T04:16:45;100591.63;;;7.76;100.00
68525;BME280;55524;51.380;13.372;2023-03-20T04:19:11;100596.22;;;7.67;100.00
68525;BME280;55524;51.380;13.372;2023-03-20T04:21:38;100597.25;;;7.59;100.00
68525;BME280;55524;51.380;13.372;2023-03-20T04:24:04;100597.34;;;7.56;100.00
68525;BME280;55524;51.380;13.372;2023-03-20T04:26:31;100603.53;;;7.54;100.00
68525;BME280;55524;51.380;13.372;2023-03-20T04:28:57;100609.72;;;7.53;100.00
68525;BME280;55524;51.380;13.372;2023-03-20T04:31:24;100611.44;;;7.54;100.00
68525;BME280;55524;51.380;13.372;2023-03-20T04:33:50;100605.31;;;7.52;100.00
68525;BME280;55524;51.380;13.372;2023-03-20T04:36:17;100608.75;;;7.57;100.00
68525;BME280;55524;51.380;13.372;2023-03-20T04:38:43;100620.13;;;7.57;100.00
68525;BME280;55524;51.380;13.372;2023-03-20T04:41:09;100616.47;;;7.63;100.00
68525;BME280;55524;51.380;13.372;2023-03-20T04:43:36;100619.09;;;7.64;100.00
68525;BME280;55524;51.380;13.372;2023-03-20T04:46:02;100621.44;;;7.77;100.00
68525;BME280;55524;51.380;13.372;2023-03-20T04:48:28;100616.81;;;7.86;100.00
68525;BME280;55524;51.380;13.372;2023-03-20T04:50:54;100626.53;;;7.84;100.00
68525;BME280;55524;51.380;13.372;2023-03-20T04:53:21;100630.75;;;7.90;100.00
68525;BME280;55524;51.380;13.372;2023-03-20T04:55:47;100629.72;;;7.97;100.00
68525;BME280;55524;51.380;13.372;2023-03-20T04:58:14;100628.75;;;8.00;100.00
68525;BME280;55524;51.380;13.372;2023-03-20T05:00:41;100633.00;;;8.07;100.00
68525;BME280;55524;51.380;13.372;2023-03-20T05:03:08;100640.88;;;8.07;100.00
68525;BME280;55524;51.380;13.372;2023-03-20T05:05:34;100633.91;;;8.06;100.00
68525;BME280;55524;51.380;13.372;2023-03-20T05:08:04;100638.19;;;8.10;100.00
68525;BME280;55524;51.380;13.372;2023-03-20T05:10:31;100636.53;;;8.06;100.00
68525;BME280;55524;51.380;13.372;2023-03-20T05:12:57;100638.34;;;8.04;100.00
68525;BME280;55524;51.380;13.372;2023-03-20T05:15:23;100636.59;;;8.04;100.00
68525;BME280;55524;51.380;13.372;2023-03-20T05:17:50;100640.06;;;8.05;100.00
68525;BME280;55524;51.380;13.372;2023-03-20T05:20:16;100643.50;;;8.08;100.00
68525;BME280;55524;51.380;13.372;2023-03-20T05:22:42;100633.84;;;8.09;100.00
68525;BME280;55524;51.380;13.372;2023-03-20T05:25:09;100646.16;;;8.07;100.00
68525;BME280;55524;51.380;13.372;2023-03-20T05:27:35;100651.28;;;8.11;100.00
68525;BME280;55524;51.380;13.372;2023-03-20T05:30:01;100649.50;;;8.13;100.00
68525;BME280;55524;51.380;13.372;2023-03-20T05:32:29;100649.38;;;8.18;100.00
68525;BME280;55524;51.380;13.372;2023-03-20T05:34:55;100655.53;;;8.19;100.00
68525;BME280;55524;51.380;13.372;2023-03-20T05:37:21;100656.38;;;8.21;100.00
68525;BME280;55524;51.380;13.372;2023-03-20T05:39:47;100654.53;;;8.24;100.00
68525;BME280;55524;51.380;13.372;2023-03-20T05:42:14;100660.59;;;8.28;100.00
68525;BME280;55524;51.380;13.372;2023-03-20T05:44:40;100662.25;;;8.32;100.00
68525;BME280;55524;51.380;13.372;2023-03-20T05:47:06;100669.22;;;8.33;100.00
68525;BME280;55524;51.380;13.372;2023-03-20T05:49:33;100666.53;;;8.34;100.00
68525;BME280;55524;51.380;13.372;2023-03-20T05:51:59;100665.59;;;8.38;100.00
68525;BME280;55524;51.380;13.372;2023-03-20T05:54:25;100667.19;;;8.46;100.00
68525;BME280;55524;51.380;13.372;2023-03-20T05:56:52;100662.94;;;8.40;100.00
68525;BME280;55524;51.380;13.372;2023-03-20T05:59:18;100670.84;;;8.40;100.00
68525;BME280;55524;51.380;13.372;2023-03-20T06:01:44;100671.72;;;8.41;100.00
68525;BME280;55524;51.380;13.372;2023-03-20T06:04:10;100673.38;;;8.43;100.00
68525;BME280;55524;51.380;13.372;2023-03-20T06:06:37;100674.16;;;8.47;100.00
68525;BME280;55524;51.380;13.372;2023-03-20T06:09:06;100671.50;;;8.48;100.00
68525;BME280;55524;51.380;13.372;2023-03-20T06:11:32;100680.22;;;8.52;100.00
68525;BME280;55524;51.380;13.372;2023-03-20T06:13:59;100675.81;;;8.52;100.00
68525;BME280;55524;51.380;13.372;2023-03-20T06:16:25;100683.59;;;8.57;100.00
68525;BME280;55524;51.380;13.372;2023-03-20T06:18:52;100681.69;;;8.62;100.00
68525;BME280;55524;51.380;13.372;2023-03-20T06:21:18;100675.31;;;8.71;100.00
68525;BME280;55524;51.380;13.372;2023-03-20T06:23:45;100676.09;;;8.76;100.00
68525;BME280;55524;51.380;13.372;2023-03-20T06:26:11;100686.41;;;8.83;100.00
68525;BME280;55524;51.380;13.372;2023-03-20T06:28:38;100687.88;;;8.95;100.00
68525;BME280;55524;51.380;13.372;2023-03-20T06:31:04;100682.47;;;9.00;100.00
68525;BME280;55524;51.380;13.372;2023-03-20T06:33:30;100683.97;;;9.08;100.00
68525;BME280;55524;51.380;13.372;2023-03-20T06:35:57;100688.19;;;9.16;100.00
68525;BME280;55524;51.380;13.372;2023-03-20T06:38:23;100684.38;;;9.26;100.00
68525;BME280;55524;51.380;13.372;2023-03-20T06:40:49;100685.06;;;9.32;100.00
68525;BME280;55524;51.380;13.372;2023-03-20T06:43:16;100682.28;;;9.37;100.00
68525;BME280;55524;51.380;13.372;2023-03-20T06:45:42;100689.13;;;9.44;100.00
68525;BME280;55524;51.380;13.372;2023-03-20T06:48:09;100696.22;;;9.42;100.00
68525;BME280;55524;51.380;13.372;2023-03-20T06:50:36;100690.78;;;9.48;100.00
68525;BME280;55524;51.380;13.372;2023-03-20T06:53:03;100690.56;;;9.56;100.00
68525;BME280;55524;51.380;13.372;2023-03-20T06:55:29;100691.28;;;9.61;100.00
68525;BME280;55524;51.380;13.372;2023-03-20T06:57:56;100692.69;;;9.73;100.00
68525;BME280;55524;51.380;13.372;2023-03-20T07:00:22;100689.97;;;9.76;100.00
68525;BME280;55524;51.380;13.372;2023-03-20T07:02:48;100690.50;;;9.87;100.00
68525;BME280;55524;51.380;13.372;2023-03-20T07:05:15;100694.72;;;9.93;100.00
68525;BME280;55524;51.380;13.372;2023-03-20T07:07:43;100689.34;;;9.96;100.00
68525;BME280;55524;51.380;13.372;2023-03-20T07:10:10;100691.84;;;10.00;100.00
68525;BME280;55524;51.380;13.372;2023-03-20T07:12:37;100692.69;;;10.02;100.00
68525;BME280;55524;51.380;13.372;2023-03-20T07:15:04;100693.31;;;10.10;100.00
68525;BME280;55524;51.380;13.372;2023-03-20T07:17:30;100699.22;;;10.17;100.00
68525;BME280;55524;51.380;13.372;2023-03-20T07:19:57;100696.41;;;10.23;100.00
68525;BME280;55524;51.380;13.372;2023-03-20T07:22:27;100710.34;;;10.30;100.00
68525;BME280;55524;51.380;13.372;2023-03-20T07:24:54;100694.03;;;10.44;100.00
68525;BME280;55524;51.380;13.372;2023-03-20T07:27:20;100704.50;;;10.47;100.00
68525;BME280;55524;51.380;13.372;2023-03-20T07:29:47;100704.50;;;10.47;100.00
68525;BME280;55524;51.380;13.372;2023-03-20T07:32:13;100710.41;;;10.55;100.00
68525;BME280;55524;51.380;13.372;2023-03-20T07:34:39;100713.59;;;10.65;100.00
68525;BME280;55524;51.380;13.372;2023-03-20T07:37:06;100714.31;;;10.70;100.00
68525;BME280;55524;51.380;13.372;2023-03-20T07:39:32;100717.66;;;10.75;100.00
68525;BME280;55524;51.380;13.372;2023-03-20T07:41:58;100718.59;;;10.74;100.00
68525;BME280;55524;51.380;13.372;2023-03-20T07:44:25;100725.53;;;10.76;100.00
68525;BME280;55524;51.380;13.372;2023-03-20T07:46:51;100723.81;;;10.75;100.00
68525;BME280;55524;51.380;13.372;2023-03-20T07:49:18;100731.63;;;10.78;100.00
68525;BME280;55524;51.380;13.372;2023-03-20T07:51:45;100715.00;;;10.75;100.00
68525;BME280;55524;51.380;13.372;2023-03-20T07:54:12;100726.34;;;10.78;100.00
68525;BME280;55524;51.380;13.372;2023-03-20T07:56:40;100727.50;;;10.96;100.00
68525;BME280;55524;51.380;13.372;2023-03-20T07:59:06;100723.22;;;10.92;100.00
68525;BME280;55524;51.380;13.372;2023-03-20T08:01:32;100722.06;;;11.01;100.00
68525;BME280;55524;51.380;13.372;2023-03-20T08:03:59;100725.50;;;11.03;100.00
68525;BME280;55524;51.380;13.372;2023-03-20T08:06:25;100719.09;;;11.10;100.00
68525;BME280;55524;51.380;13.372;2023-03-20T08:08:51;100723.78;;;11.27;100.00
68525;BME280;55524;51.380;13.372;2023-03-20T08:11:19;100728.13;;;11.29;100.00
68525;BME280;55524;51.380;13.372;2023-03-20T08:13:45;100725.97;;;11.39;100.00
68525;BME280;55524;51.380;13.372;2023-03-20T08:16:12;100728.53;;;11.42;100.00
68525;BME280;55524;51.380;13.372;2023-03-20T08:18:38;100720.22;;;11.28;100.00
68525;BME280;55524;51.380;13.372;2023-03-20T08:21:04;100730.16;;;11.21;100.00
68525;BME280;55524;51.380;13.372;2023-03-20T08:23:31;100728.31;;;11.23;100.00
68525;BME280;55524;51.380;13.372;2023-03-20T08:25:57;100725.41;;;11.31;100.00
68525;BME280;55524;51.380;13.372;2023-03-20T08:28:24;100726.44;;;11.27;100.00
68525;BME280;55524;51.380;13.372;2023-03-20T08:30:51;100733.88;;;11.16;100.00
68525;BME280;55524;51.380;13.372;2023-03-20T08:33:18;100735.16;;;11.04;100.00
68525;BME280;55524;51.380;13.372;2023-03-20T08:35:57;100734.47;;;10.99;100.00
68525;BME280;55524;51.380;13.372;2023-03-20T08:38:24;100744.84;;;10.78;100.00
68525;BME280;55524;51.380;13.372;2023-03-20T08:40:50;100742.16;;;10.80;100.00
68525;BME280;55524;51.380;13.372;2023-03-20T08:43:17;100738.88;;;10.73;100.00
68525;BME280;55524;51.380;13.372;2023-03-20T08:45:43;100740.44;;;10.79;100.00
68525;BME280;55524;51.380;13.372;2023-03-20T08:48:10;100745.97;;;10.71;100.00
68525;BME280;55524;51.380;13.372;2023-03-20T08:50:37;100750.41;;;10.71;100.00
68525;BME280;55524;51.380;13.372;2023-03-20T08:53:04;100747.06;;;10.66;100.00
68525;BME280;55524;51.380;13.372;2023-03-20T08:55:31;100750.19;;;10.50;100.00
68525;BME280;55524;51.380;13.372;2023-03-20T08:57:58;100754.75;;;10.45;100.00
68525;BME280;55524;51.380;13.372;2023-03-20T09:00:25;100755.66;;;10.44;100.00
68525;BME280;55524;51.380;13.372;2023-03-20T09:02:52;100750.38;;;10.44;100.00
68525;BME280;55524;51.380;13.372;2023-03-20T09:05:18;100753.78;;;10.48;100.00
68525;BME280;55524;51.380;13.372;2023-03-20T09:07:45;100761.94;;;10.40;100.00
68525;BME280;55524;51.380;13.372;2023-03-20T09:10:12;100754.03;;;10.40;100.00
68525;BME280;55524;51.380;13.372;2023-03-20T09:12:38;100761.78;;;10.45;100.00
68525;BME280;55524;51.380;13.372;2023-03-20T09:15:05;100766.56;;;10.62;100.00
68525;BME280;55524;51.380;13.372;2023-03-20T09:17:32;100755.78;;;10.68;100.00
68525;BME280;55524;51.380;13.372;2023-03-20T09:19:58;100761.06;;;10.68;100.00
68525;BME280;55524;51.380;13.372;2023-03-20T09:22:24;100757.50;;;10.69;100.00
68525;BME280;55524;51.380;13.372;2023-03-20T09:24:50;100763.41;;;10.77;100.00
68525;BME280;55524;51.380;13.372;2023-03-20T09:27:17;100763.28;;;10.81;100.00
68525;BME280;55524;51.380;13.372;2023-03-20T09:29:43;100767.78;;;10.78;100.00
68525;BME280;55524;51.380;13.372;2023-03-20T09:32:14;100769.94;;;10.93;100.00
68525;BME280;55524;51.380;13.372;2023-03-20T09:34:40;100775.59;;;11.07;100.00
68525;BME280;55524;51.380;13.372;2023-03-20T09:37:07;100775.69;;;11.04;100.00
68525;BME280;55524;51.380;13.372;2023-03-20T09:39:33;100773.38;;;10.95;100.00
68525;BME280;55524;51.380;13.372;2023-03-20T09:45:00;100787.47;;;10.69;100.00
68525;BME280;55524;51.380;13.372;2023-03-20T09:50:07;100790.50;;;10.83;100.00
68525;BME280;55524;51.380;13.372;2023-03-20T09:52:41;100793.91;;;10.87;100.00
68525;BME280;55524;51.380;13.372;2023-03-20T09:55:15;100792.84;;;10.93;100.00
68525;BME280;55524;51.380;13.372;2023-03-20T09:57:49;100785.66;;;10.96;100.00
68525;BME280;55524;51.380;13.372;2023-03-20T10:00:19;100781.81;;;11.06;100.00
68525;BME280;55524;51.380;13.372;2023-03-20T10:05:23;100791.63;;;11.03;100.00
68525;BME280;55524;51.380;13.372;2023-03-20T10:07:52;100784.19;;;11.14;100.00
68525;BME280;55524;51.380;13.372;2023-03-20T10:10:21;100791.13;;;10.92;100.00
68525;BME280;55524;51.380;13.372;2023-03-20T10:16:00;100792.72;;;10.97;100.00
68525;BME280;55524;51.380;13.372;2023-03-20T10:18:34;100794.53;;;10.95;100.00
68525;BME280;55524;51.380;13.372;2023-03-20T10:21:19;100793.66;;;10.95;100.00
68525;BME280;55524;51.380;13.372;2023-03-20T10:24:05;100797.84;;;11.02;100.00
68525;BME280;55524;51.380;13.372;2023-03-20T10:26:35;100798.13;;;10.93;100.00
68525;BME280;55524;51.380;13.372;2023-03-20T10:32:09;100797.66;;;10.80;100.00
68525;BME280;55524;51.380;13.372;2023-03-20T10:37:52;100797.38;;;10.63;100.00
68525;BME280;55524;51.380;13.372;2023-03-20T10:40:30;100796.44;;;10.64;100.00
68525;BME280;55524;51.380;13.372;2023-03-20T10:43:02;100793.56;;;10.71;100.00
68525;BME280;55524;51.380;13.372;2023-03-20T10:45:38;100798.69;;;10.76;100.00
68525;BME280;55524;51.380;13.372;2023-03-20T10:50:55;100795.59;;;10.90;100.00
68525;BME280;55524;51.380;13.372;2023-03-20T10:56:09;100794.06;;;10.82;100.00
68525;BME280;55524;51.380;13.372;2023-03-20T10:58:40;100798.78;;;10.73;100.00
68525;BME280;55524;51.380;13.372;2023-03-20T11:01:08;100799.28;;;10.86;100.00
68525;BME280;55524;51.380;13.372;2023-03-20T11:03:34;100792.91;;;10.91;100.00
68525;BME280;55524;51.380;13.372;2023-03-20T11:06:26;100787.59;;;10.91;97.51
68525;BME280;55524;51.380;13.372;2023-03-20T11:08:55;100798.78;;;10.73;100.00
68525;BME280;55524;51.380;13.372;2023-03-20T11:11:26;100788.19;;;10.73;100.00
68525;BME280;55524;51.380;13.372;2023-03-20T11:13:53;100789.41;;;10.91;100.00
68525;BME280;55524;51.380;13.372;2023-03-20T11:16:24;100783.25;;;10.90;100.00
68525;BME280;55524;51.380;13.372;2023-03-20T11:18:52;100782.63;;;10.82;100.00
68525;BME280;55524;51.380;13.372;2023-03-20T11:21:26;100796.91;;;10.76;100.00
68525;BME280;55524;51.380;13.372;2023-03-20T11:23:53;100792.09;;;10.61;100.00
68525;BME280;55524;51.380;13.372;2023-03-20T11:26:46;100789.59;;;10.58;100.00
68525;BME280;55524;51.380;13.372;2023-03-20T11:29:30;100786.13;;;10.82;100.00
68525;BME280;55524;51.380;13.372;2023-03-20T11:32:30;100789.41;;;10.91;100.00
68525;BME280;55524;51.380;13.372;2023-03-20T11:35:10;100792.38;;;10.80;99.92
68525;BME280;55524;51.380;13.372;2023-03-20T11:37:47;100785.53;;;10.74;100.00
68525;BME280;55524;51.380;13.372;2023-03-20T11:42:54;100782.91;;;10.73;100.00
68525;BME280;55524;51.380;13.372;2023-03-20T11:45:22;100779.63;;;10.66;100.00
68525;BME280;55524;51.380;13.372;2023-03-20T11:47:54;100778.78;;;10.64;100.00
68525;BME280;55524;51.380;13.372;2023-03-20T11:50:29;100779.47;;;10.71;100.00
68525;BME280;55524;51.380;13.372;2023-03-20T11:52:56;100771.75;;;10.91;98.64
68525;BME280;55524;51.380;13.372;2023-03-20T11:55:27;100772.69;;;10.89;98.97
68525;BME280;55524;51.380;13.372;2023-03-20T11:58:16;100765.69;;;10.88;98.16
68525;BME280;55524;51.380;13.372;2023-03-20T12:00:46;100759.13;;;10.99;98.32
68525;BME280;55524;51.380;13.372;2023-03-20T12:03:45;100762.03;;;10.92;97.77
68525;BME280;55524;51.380;13.372;2023-03-20T12:06:17;100769.88;;;10.95;97.70
68525;BME280;55524;51.380;13.372;2023-03-20T12:08:59;100759.72;;;11.07;98.52
68525;BME280;55524;51.380;13.372;2023-03-20T12:11:56;100756.72;;;10.93;96.67
68525;BME280;55524;51.380;13.372;2023-03-20T12:20:40;100761.22;;;10.90;98.97
68525;BME280;55524;51.380;13.372;2023-03-20T12:28:23;100748.28;;;11.07;97.50
68525;BME280;55524;51.380;13.372;2023-03-20T12:33:43;100757.47;;;11.22;97.67
68525;BME280;55524;51.380;13.372;2023-03-20T12:36:18;100756.78;;;11.17;96.53
68525;BME280;55524;51.380;13.372;2023-03-20T12:38:48;100752.38;;;11.16;95.83
68525;BME280;55524;51.380;13.372;2023-03-20T12:49:37;100755.44;;;11.05;98.67
68525;BME280;55524;51.380;13.372;2023-03-20T12:55:30;100747.63;;;11.00;98.62
68525;BME280;55524;51.380;13.372;2023-03-20T13:01:21;100735.31;;;10.99;99.74
68525;BME280;55524;51.380;13.372;2023-03-20T13:03:57;100725.66;;;10.98;98.59
68525;BME280;55524;51.380;13.372;2023-03-20T13:12:00;100731.03;;;10.70;100.00
68525;BME280;55524;51.380;13.372;2023-03-20T13:17:54;100729.91;;;10.77;100.00
68525;BME280;55524;51.380;13.372;2023-03-20T13:24:00;100718.41;;;10.52;100.00
68525;BME280;55524;51.380;13.372;2023-03-20T13:26:46;100719.19;;;10.55;100.00
68525;BME280;55524;51.380;13.372;2023-03-20T13:29:29;100712.88;;;10.59;100.00
68525;BME280;55524;51.380;13.372;2023-03-20T13:37:55;100706.16;;;10.76;100.00
68525;BME280;55524;51.380;13.372;2023-03-20T13:40:39;100697.72;;;10.91;100.00
68525;BME280;55524;51.380;13.372;2023-03-20T13:45:39;100702.91;;;10.94;100.00
68525;BME280;55524;51.380;13.372;2023-03-20T13:53:37;100697.84;;;11.13;100.00
68525;BME280;55524;51.380;13.372;2023-03-20T14:01:31;100701.16;;;11.18;100.00
68525;BME280;55524;51.380;13.372;2023-03-20T14:04:01;100695.63;;;11.24;100.00
68525;BME280;55524;51.380;13.372;2023-03-20T14:08:58;100695.63;;;11.01;100.00
68525;BME280;55524;51.380;13.372;2023-03-20T14:11:27;100705.31;;;11.00;100.00
68525;BME280;55524;51.380;13.372;2023-03-20T14:13:58;100698.13;;;10.79;100.00
68525;BME280;55524;51.380;13.372;2023-03-20T14:16:28;100697.81;;;10.88;100.00
68525;BME280;55524;51.380;13.372;2023-03-20T14:19:19;100688.81;;;10.94;100.00
68525;BME280;55524;51.380;13.372;2023-03-20T14:21:53;100687.78;;;10.98;100.00
68525;BME280;55524;51.380;13.372;2023-03-20T14:24:23;100682.69;;;10.92;100.00
68525;BME280;55524;51.380;13.372;2023-03-20T14:26:59;100677.91;;;11.03;100.00
68525;BME280;55524;51.380;13.372;2023-03-20T14:34:52;100680.97;;;11.16;100.00
68525;BME280;55524;51.380;13.372;2023-03-20T14:37:28;100684.44;;;11.18;100.00
68525;BME280;55524;51.380;13.372;2023-03-20T14:45:49;100674.88;;;11.14;100.00
68525;BME280;55524;51.380;13.372;2023-03-20T14:48:36;100664.06;;;11.20;100.00
68525;BME280;55524;51.380;13.372;2023-03-20T14:51:36;100663.47;;;11.12;100.00
68525;BME280;55524;51.380;13.372;2023-03-20T14:56:51;100668.94;;;11.07;100.00
68525;BME280;55524;51.380;13.372;2023-03-20T14:59:20;100664.50;;;11.07;100.00
68525;BME280;55524;51.380;13.372;2023-03-20T15:01:58;100664.47;;;11.09;100.00
68525;BME280;55524;51.380;13.372;2023-03-20T15:09:27;100646.16;;;11.03;100.00
68525;BME280;55524;51.380;13.372;2023-03-20T15:11:56;100643.06;;;11.15;100.00
68525;BME280;55524;51.380;13.372;2023-03-20T15:14:36;100636.53;;;11.25;100.00
68525;BME280;55524;51.380;13.372;2023-03-20T15:17:14;100634.38;;;11.37;100.00
68525;BME280;55524;51.380;13.372;2023-03-20T15:19:41;100639.59;;;11.38;100.00